createdAt,value
2022-12-19T20:31:44.614Z,500.00
2022-12-19T20:32:44.380Z,500.00
2022-12-19T20:33:47.666Z,500.00
2022-12-19T20:34:44.289Z,500.00
2022-12-19T20:35:44.186Z,500.00
2022-12-19T20:36:44.001Z,500.00
2022-12-19T20:37:44.025Z,500.00
2022-12-19T20:38:43.910Z,500.00
2022-12-19T20:39:46.581Z,487.00
2022-12-19T20:40:43.819Z,446.00
2022-12-19T20:41:44.437Z,400.00
2022-12-19T20:42:44.140Z,400.00
2022-12-19T20:43:44.291Z,400.00
2022-12-19T20:44:43.442Z,400.00
2022-12-19T20:45:43.465Z,400.00
2022-12-19T20:46:44.003Z,400.00
2022-12-19T20:47:43.152Z,445.00
2022-12-19T20:48:43.071Z,493.00
2022-12-19T20:49:42.853Z,501.00
2022-12-19T20:50:43.704Z,500.00
2022-12-19T20:51:42.678Z,504.00
2022-12-19T20:52:42.580Z,501.00
2022-12-19T20:53:42.468Z,503.00
2022-12-19T20:54:43.189Z,503.00
2022-12-19T21:12:29.991Z,500.00
2022-12-19T21:13:30.520Z,500.00
2022-12-19T21:14:29.940Z,500.00
2022-12-19T21:15:29.724Z,500.00
2022-12-19T21:16:30.009Z,500.00
2022-12-19T21:17:29.413Z,505.00
2022-12-19T21:23:01.911Z,500.00
2022-12-19T21:34:04.688Z,1365.00
2022-12-19T22:17:58.479Z,1730.00
2022-12-19T22:28:58.049Z,1820.00
2022-12-19T22:29:57.656Z,1827.00
2022-12-19T22:30:57.559Z,1835.00
2022-12-19T22:31:57.670Z,1847.00
2022-12-19T22:32:57.459Z,1852.00
2022-12-19T22:33:57.361Z,1841.00
2022-12-19T22:34:57.266Z,1858.00
2022-12-19T22:35:57.692Z,1856.00
2022-12-19T22:36:57.198Z,1869.00
2022-12-19T22:37:57.185Z,1880.00
2022-12-19T22:38:57.121Z,1889.00
2022-12-19T22:40:56.906Z,1894.00
2022-12-19T22:41:56.824Z,1895.00
2022-12-19T22:42:58.657Z,1899.00
2022-12-19T22:43:56.842Z,1894.00
2022-12-19T22:44:56.748Z,1899.00
2022-12-19T22:45:58.309Z,1908.00
2022-12-19T22:46:56.652Z,1924.00
2022-12-19T22:47:56.558Z,1942.00
2022-12-19T22:48:57.277Z,1944.00
2022-12-19T22:49:56.451Z,1952.00
2022-12-19T22:50:56.365Z,1969.00
2022-12-19T22:51:56.764Z,1967.00
2022-12-19T22:52:56.272Z,1974.00
2022-12-19T22:53:56.186Z,1979.00
2022-12-19T22:54:56.284Z,1978.00
2022-12-19T22:55:56.081Z,1975.00
2022-12-19T22:56:55.974Z,1991.00
2022-12-19T22:57:56.289Z,1996.00
2022-12-19T22:58:56.294Z,1997.00
2022-12-19T22:59:55.791Z,2002.00
2022-12-19T23:00:55.798Z,2003.00
2022-12-19T23:01:56.029Z,2017.00
2022-12-19T23:02:55.777Z,2026.00
2022-12-19T23:03:55.971Z,2023.00
2022-12-19T23:04:55.820Z,2028.00
2022-12-19T23:05:55.447Z,2025.00
2022-12-19T23:06:55.330Z,2031.00
2022-12-19T23:07:56.265Z,2040.00
2022-12-19T23:08:55.247Z,2042.00
2022-12-19T23:09:55.155Z,2047.00
2022-12-19T23:10:55.263Z,2051.00
2022-12-19T23:11:55.275Z,2055.00
2022-12-19T23:12:54.979Z,2061.00
2022-12-19T23:13:54.862Z,2061.00
2022-12-19T23:14:54.764Z,2070.00
2022-12-19T23:15:54.770Z,2081.00
2022-12-19T23:16:54.832Z,2074.00
2022-12-19T23:17:54.615Z,2078.00
2022-12-19T23:18:55.234Z,2082.00
2022-12-19T23:19:54.392Z,2088.00
2022-12-19T23:20:54.835Z,2092.00
2022-12-19T23:21:55.328Z,2093.00
2022-12-19T23:22:54.204Z,2093.00
2022-12-19T23:23:54.114Z,2095.00
2022-12-19T23:25:55.766Z,2093.00
2022-12-19T23:26:53.953Z,2094.00
2022-12-19T23:27:55.817Z,2098.00
2022-12-19T23:28:53.859Z,2104.00
2022-12-19T23:29:53.738Z,2116.00
2022-12-19T23:30:54.287Z,2129.00
2022-12-19T23:31:53.689Z,2135.00
2022-12-19T23:32:53.562Z,2143.00
2022-12-19T23:33:53.811Z,2145.00
2022-12-19T23:34:53.774Z,2150.00
2022-12-19T23:35:53.410Z,2148.00
2022-12-19T23:37:21.838Z,2158.00
2022-12-19T23:37:54.207Z,2159.00
2022-12-19T23:38:53.184Z,2158.00
2022-12-19T23:39:53.095Z,2163.00
2022-12-19T23:40:53.010Z,2169.00
2022-12-19T23:41:53.331Z,2175.00
2022-12-19T23:42:52.933Z,2174.00
2022-12-19T23:43:52.852Z,2172.00
2022-12-19T23:44:52.611Z,2183.00
2022-12-19T23:45:52.787Z,2173.00
2022-12-19T23:47:02.320Z,2191.00
2022-12-19T23:47:55.217Z,2192.00
2022-12-19T23:48:52.364Z,2193.00
2022-12-19T23:49:54.187Z,2193.00
2022-12-19T23:50:52.256Z,2192.00
2022-12-19T23:51:52.148Z,2192.00
2022-12-19T23:52:52.173Z,2195.00
2022-12-19T23:53:52.782Z,2201.00
2022-12-19T23:54:51.972Z,2208.00
2022-12-19T23:55:51.895Z,2210.00
2022-12-19T23:56:51.894Z,2209.00
2022-12-19T23:57:52.213Z,2201.00
2022-12-19T23:58:51.716Z,2201.00
2022-12-19T23:59:51.601Z,2217.00
